Time;durP1;ratioP1;P1;durP2;ratioP2;P2;SDS_P1;SDS_P2;PMS_P1;PMS_P2;Temp;Humidity;BMP_temperature;BMP_pressure;BME280_temperature;BME280_humidity;BME280_pressure;Samples;Min_cycle;Max_cycle;Signal;HPM_P1;HPM_P2
2022/07/14 00:01:21;;;;;;;9.15;2.17;;;14.90;99.90;;;;;;5025814;28;20037;-74
2022/07/14 00:03:46;;;;;;;12.93;2.78;;;14.90;99.90;;;;;;5021816;28;20116;-73
2022/07/14 00:06:12;;;;;;;10.50;2.42;;;14.80;99.90;;;;;;5021025;28;20046;-73
2022/07/14 00:08:39;;;;;;;9.90;2.65;;;14.80;99.90;;;;;;5022671;28;20053;-73
2022/07/14 00:11:05;;;;;;;10.23;2.58;;;14.80;99.90;;;;;;5015086;28;20057;-73
2022/07/14 00:13:31;;;;;;;12.93;2.50;;;14.90;99.90;;;;;;5021345;28;20390;-73
2022/07/14 00:15:57;;;;;;;10.48;2.30;;;14.90;99.90;;;;;;5018932;28;20460;-73
2022/07/14 00:18:23;;;;;;;14.30;2.53;;;14.80;99.90;;;;;;5035118;28;20085;-73
2022/07/14 00:20:49;;;;;;;10.93;2.45;;;14.80;99.90;;;;;;5014935;28;20049;-73
2022/07/14 00:23:15;;;;;;;10.68;2.40;;;14.80;99.90;;;;;;5023034;28;20392;-73
2022/07/14 00:25:42;;;;;;;13.75;2.58;;;14.80;99.90;;;;;;5024024;28;20049;-72
2022/07/14 00:28:07;;;;;;;11.60;3.30;;;14.70;99.90;;;;;;5024483;28;20034;-71
2022/07/14 00:30:33;;;;;;;11.65;2.30;;;14.70;99.90;;;;;;5022091;28;20034;-71
2022/07/14 00:32:59;;;;;;;8.52;2.35;;;14.70;99.90;;;;;;5019201;28;20099;-71
2022/07/14 00:35:24;;;;;;;14.43;2.90;;;14.70;99.90;;;;;;5023481;28;20041;-71
2022/07/14 00:37:50;;;;;;;12.10;3.25;;;14.60;99.90;;;;;;5019188;28;20089;-71
2022/07/14 00:40:16;;;;;;;12.23;2.83;;;14.60;99.90;;;;;;5021292;28;20041;-71
2022/07/14 00:42:46;;;;;;;14.70;3.05;;;14.90;99.90;;;;;;5015886;28;20053;-71
2022/07/14 00:45:19;;;;;;;9.95;2.97;;;14.60;99.90;;;;;;5020663;28;20036;-71
2022/07/14 00:47:46;;;;;;;8.57;2.47;;;14.60;99.90;;;;;;5018033;28;20049;-71
2022/07/14 00:50:13;;;;;;;12.00;3.28;;;14.50;99.90;;;;;;5020173;28;20075;-71
2022/07/14 00:52:40;;;;;;;10.10;2.78;;;14.50;99.90;;;;;;5022418;28;20139;-71
2022/07/14 00:55:07;;;;;;;10.67;3.13;;;14.50;99.90;;;;;;5020140;28;20037;-71
2022/07/14 00:57:33;;;;;;;11.60;3.47;;;14.40;99.90;;;;;;5021300;28;20301;-71
2022/07/14 00:59:59;;;;;;;9.27;3.22;;;14.30;99.90;;;;;;5021112;28;20504;-71
2022/07/14 01:02:24;;;;;;;10.00;3.20;;;14.20;99.90;;;;;;5020066;28;20438;-70
2022/07/14 01:04:50;;;;;;;8.85;2.85;;;14.30;99.90;;;;;;5016886;28;20507;-73
2022/07/14 01:07:17;;;;;;;10.82;3.50;;;14.20;99.90;;;;;;5016239;28;20063;-72
2022/07/14 01:09:43;;;;;;;9.95;3.20;;;14.20;99.90;;;;;;5023631;28;20045;-72
2022/07/14 01:12:10;;;;;;;11.02;3.28;;;14.10;99.90;;;;;;5019338;28;20045;-72
2022/07/14 01:14:37;;;;;;;11.00;3.15;;;14.10;99.90;;;;;;5022316;28;20123;-72
2022/07/14 01:17:04;;;;;;;15.35;3.47;;;14.00;99.90;;;;;;5022851;28;20034;-72
2022/07/14 01:19:29;;;;;;;13.50;3.10;;;14.00;99.90;;;;;;5022426;28;20041;-72
2022/07/14 01:21:56;;;;;;;12.20;3.20;;;;;;;;;;5023974;28;20280;-72
2022/07/14 01:24:23;;;;;;;13.45;3.53;;;13.90;99.90;;;;;;5017856;28;20191;-72
2022/07/14 01:26:49;;;;;;;10.93;3.17;;;13.90;99.90;;;;;;5018489;28;20312;-73
2022/07/14 01:29:14;;;;;;;9.88;2.70;;;13.90;99.90;;;;;;5017421;28;20692;-73
2022/07/14 01:31:40;;;;;;;9.85;3.20;;;13.80;99.90;;;;;;5018161;28;20461;-73
2022/07/14 01:34:06;;;;;;;10.60;3.45;;;13.90;99.90;;;;;;5018654;28;20485;-73
2022/07/14 01:36:32;;;;;;;10.65;2.90;;;13.90;99.90;;;;;;5016840;28;20048;-74
2022/07/14 01:38:58;;;;;;;10.10;3.15;;;13.60;99.90;;;;;;5020695;28;20042;-73
2022/07/14 01:41:24;;;;;;;12.07;3.35;;;13.70;99.90;;;;;;5019259;28;20504;-73
2022/07/14 01:43:50;;;;;;;11.07;3.65;;;13.60;99.90;;;;;;5003822;28;20041;-73
2022/07/14 01:46:16;;;;;;;9.10;2.85;;;13.50;99.90;;;;;;5020162;28;20049;-75
2022/07/14 01:48:41;;;;;;;10.38;3.00;;;13.50;99.90;;;;;;5024296;28;20044;-73
2022/07/14 01:51:07;;;;;;;12.07;3.50;;;13.50;99.90;;;;;;5075575;22;20053;-55
2022/07/14 01:53:33;;;;;;;10.70;2.50;;;13.50;99.90;;;;;;5039263;28;20065;-56
2022/07/14 01:56:00;;;;;;;10.23;3.17;;;13.50;99.90;;;;;;5038262;28;20510;-55
2022/07/14 01:58:25;;;;;;;10.68;3.03;;;13.40;99.90;;;;;;5038890;28;20497;-56
2022/07/14 02:03:35;;;;;;;9.90;2.70;;;13.30;99.90;;;;;;5041424;28;21312;-56
2022/07/14 02:06:02;;;;;;;11.23;3.20;;;13.30;99.90;;;;;;5042001;28;20061;-56
2022/07/14 02:08:28;;;;;;;12.35;3.58;;;13.40;99.90;;;;;;5041937;28;20132;-56
2022/07/14 02:13:38;;;;;;;13.50;3.65;;;13.20;99.90;;;;;;5039511;28;20052;-56
2022/07/14 02:16:03;;;;;;;13.50;3.80;;;13.20;99.90;;;;;;5047288;28;21351;-56
2022/07/14 02:18:29;;;;;;;6.80;3.03;;;13.20;99.90;;;;;;5039404;28;20119;-57
2022/07/14 02:20:55;;;;;;;10.20;3.20;;;13.20;99.90;;;;;;5041570;28;20447;-56
2022/07/14 02:23:21;;;;;;;9.70;3.17;;;13.20;99.90;;;;;;5043341;28;20041;-56
2022/07/14 02:25:47;;;;;;;10.75;3.65;;;13.10;99.90;;;;;;5042965;28;20045;-56
2022/07/14 02:28:13;;;;;;;12.18;3.75;;;13.10;99.90;;;;;;5037617;28;20045;-55
2022/07/14 02:30:38;;;;;;;12.68;3.47;;;13.10;99.90;;;;;;5040081;28;20037;-56
2022/07/14 02:33:04;;;;;;;10.95;3.67;;;13.10;99.90;;;;;;5044415;28;20075;-55
2022/07/14 02:35:30;;;;;;;9.90;3.58;;;13.10;99.90;;;;;;5040019;28;20044;-56
2022/07/14 02:37:56;;;;;;;10.75;3.90;;;13.00;99.90;;;;;;5038398;28;20052;-57
2022/07/14 02:40:21;;;;;;;8.65;3.55;;;13.00;99.90;;;;;;5043794;28;20043;-53
2022/07/14 02:42:47;;;;;;;7.95;3.33;;;12.90;99.90;;;;;;5040333;28;20045;-56
2022/07/14 02:45:13;;;;;;;8.85;3.40;;;12.90;99.90;;;;;;5039616;28;20037;-56
2022/07/14 02:47:38;;;;;;;11.90;3.13;;;12.90;99.90;;;;;;5037091;28;20383;-56
2022/07/14 02:50:05;;;;;;;7.10;3.22;;;12.90;99.90;;;;;;5046301;28;20049;-56
2022/07/14 02:52:30;;;;;;;12.27;3.97;;;12.80;99.90;;;;;;5036131;28;20076;-54
2022/07/14 02:54:56;;;;;;;11.98;3.90;;;12.80;99.90;;;;;;5041279;28;20372;-56
2022/07/14 02:57:21;;;;;;;10.40;3.05;;;12.80;99.90;;;;;;5036433;28;20395;-56
2022/07/14 02:59:47;;;;;;;6.10;2.92;;;12.80;99.90;;;;;;5034481;28;20056;-56
2022/07/14 03:02:12;;;;;;;12.15;3.33;;;12.70;99.90;;;;;;5040200;28;20041;-56
2022/07/14 03:04:38;;;;;;;9.48;3.50;;;12.70;99.90;;;;;;5032643;28;20507;-54
2022/07/14 03:07:04;;;;;;;13.25;4.43;;;12.70;99.90;;;;;;5041410;28;20398;-56
2022/07/14 03:09:29;;;;;;;8.40;3.40;;;12.70;99.90;;;;;;5042717;28;20463;-56
2022/07/14 03:11:55;;;;;;;12.43;3.50;;;12.60;99.90;;;;;;5037671;28;20051;-56
2022/07/14 03:14:21;;;;;;;8.38;3.05;;;12.60;99.90;;;;;;5039870;28;20029;-56
2022/07/14 03:16:46;;;;;;;9.00;3.33;;;12.60;99.90;;;;;;5039636;28;20044;-56
2022/07/14 03:19:12;;;;;;;8.52;3.20;;;12.60;99.90;;;;;;5040916;28;20072;-58
2022/07/14 03:21:37;;;;;;;9.25;3.30;;;12.50;99.90;;;;;;5043111;28;20033;-57
2022/07/14 03:24:03;;;;;;;9.52;3.10;;;12.50;99.90;;;;;;5038604;28;20037;-58
2022/07/14 03:26:29;;;;;;;8.40;3.30;;;12.50;99.90;;;;;;5040359;28;20041;-58
2022/07/14 03:28:55;;;;;;;8.38;3.67;;;12.50;99.90;;;;;;5037253;28;20037;-55
2022/07/14 03:31:21;;;;;;;10.57;3.60;;;12.50;99.90;;;;;;5032855;28;20553;-56
2022/07/14 03:33:46;;;;;;;9.30;3.30;;;12.50;99.90;;;;;;5039229;28;20132;-56
2022/07/14 03:36:12;;;;;;;8.32;3.35;;;12.50;99.90;;;;;;5040246;28;20041;-58
2022/07/14 03:38:37;;;;;;;8.60;3.08;;;12.50;99.90;;;;;;5037136;28;20045;-58
2022/07/14 03:41:07;;;;;;;10.18;3.20;;;12.50;99.90;;;;;;5037086;28;20041;-58
2022/07/14 03:43:33;;;;;;;13.30;3.47;;;12.50;99.90;;;;;;5038749;28;20480;-58
2022/07/14 03:45:58;;;;;;;13.10;3.90;;;12.50;99.90;;;;;;5042059;28;20517;-59
2022/07/14 03:48:24;;;;;;;12.10;4.47;;;12.50;99.90;;;;;;5039584;28;20045;-58
2022/07/14 03:50:50;;;;;;;12.18;3.97;;;12.50;99.90;;;;;;5038730;28;20495;-57
2022/07/14 03:53:15;;;;;;;13.30;3.85;;;12.50;99.90;;;;;;5040077;28;20063;-58
2022/07/14 03:55:45;;;;;;;9.45;3.75;;;12.50;99.90;;;;;;5042111;28;20033;-58
2022/07/14 03:58:10;;;;;;;10.10;3.92;;;12.50;99.90;;;;;;5042148;28;20482;-57
2022/07/14 04:00:37;;;;;;;13.40;3.75;;;12.50;99.90;;;;;;5036537;28;20126;-58
2022/07/14 04:03:03;;;;;;;8.32;3.95;;;12.60;99.90;;;;;;5026934;28;20480;-56
2022/07/14 04:05:29;;;;;;;9.88;3.67;;;12.60;99.90;;;;;;5033683;28;20042;-58
2022/07/14 04:07:54;;;;;;;10.52;3.92;;;12.60;99.90;;;;;;5037798;28;20049;-58
2022/07/14 04:10:20;;;;;;;7.57;3.50;;;12.70;99.90;;;;;;5035564;28;20269;-57
2022/07/14 04:12:46;;;;;;;9.27;4.13;;;12.70;99.90;;;;;;5038854;28;20068;-56
2022/07/14 04:15:13;;;;;;;11.75;4.57;;;12.70;99.90;;;;;;5036940;28;20041;-54
2022/07/14 04:17:38;;;;;;;6.82;3.53;;;12.80;99.90;;;;;;5040644;28;20045;-57
2022/07/14 04:20:05;;;;;;;12.90;4.18;;;12.80;99.90;;;;;;5036095;28;20198;-55
2022/07/14 04:22:30;;;;;;;12.23;4.07;;;12.90;99.90;;;;;;5038047;28;20052;-56
2022/07/14 04:24:56;;;;;;;9.80;3.97;;;12.90;99.90;;;;;;5036685;28;20044;-56
2022/07/14 04:27:21;;;;;;;11.90;4.13;;;13.00;99.90;;;;;;5031122;28;20041;-57
2022/07/14 04:29:47;;;;;;;11.52;4.20;;;;;;;;;;5039198;28;20044;-56
2022/07/14 04:32:13;;;;;;;10.98;3.70;;;13.10;99.90;;;;;;5033886;28;20121;-55
2022/07/14 04:34:39;;;;;;;10.15;4.43;;;13.20;99.90;;;;;;5036170;28;20037;-56
2022/07/14 04:37:05;;;;;;;10.13;3.90;;;13.30;99.90;;;;;;5033130;28;20057;-56
2022/07/14 04:39:31;;;;;;;14.05;4.22;;;13.40;99.90;;;;;;5033883;28;20521;-56
2022/07/14 04:41:56;;;;;;;11.57;4.22;;;13.50;99.90;;;;;;5032628;28;20092;-57
2022/07/14 04:44:22;;;;;;;12.18;3.72;;;13.80;99.90;;;;;;5038160;28;20517;-56
2022/07/14 04:46:48;;;;;;;10.63;4.55;;;14.20;99.90;;;;;;5057207;28;20094;-57
2022/07/14 04:52:04;;;;;;;11.35;3.83;;;16.30;99.90;;;;;;5034448;28;20049;-57
2022/07/14 04:54:30;;;;;;;9.52;4.15;;;17.20;99.90;;;;;;5037108;28;20048;-57
2022/07/14 04:56:56;;;;;;;11.35;3.47;;;18.10;99.90;;;;;;5031232;28;20041;-57
2022/07/14 04:59:22;;;;;;;8.27;3.05;;;18.90;99.90;;;;;;5040282;28;20099;-57
2022/07/14 05:01:48;;;;;;;7.53;3.10;;;19.30;99.90;;;;;;5035972;28;20398;-57
2022/07/14 05:04:13;;;;;;;6.80;2.85;;;19.70;99.90;;;;;;5035343;28;20076;-57
2022/07/14 05:06:39;;;;;;;9.57;2.88;;;20.50;99.90;;;;;;5038327;28;20068;-56
2022/07/14 05:09:05;;;;;;;8.75;2.95;;;21.30;99.90;;;;;;5041325;28;20037;-56
2022/07/14 05:11:30;;;;;;;9.07;2.80;;;21.70;99.90;;;;;;5032473;28;20029;-57
2022/07/14 05:13:57;;;;;;;7.63;2.80;;;22.40;99.90;;;;;;5040007;28;20068;-57
2022/07/14 05:16:22;;;;;;;6.85;2.88;;;22.90;99.90;;;;;;5035821;28;20056;-56
2022/07/14 05:18:49;;;;;;;7.88;2.90;;;23.50;99.90;;;;;;5030688;28;20038;-57
2022/07/14 05:21:15;;;;;;;6.70;2.55;;;23.90;99.90;;;;;;5037115;28;20042;-56
2022/07/14 05:23:41;;;;;;;6.40;2.20;;;24.30;99.90;;;;;;5037014;28;20479;-57
2022/07/14 05:26:13;;;;;;;9.93;2.75;;;24.50;99.90;;;;;;5034333;28;20100;-58
2022/07/14 05:28:39;;;;;;;6.43;2.08;;;24.80;99.90;;;;;;5035556;28;20059;-57
2022/07/14 05:31:05;;;;;;;7.30;2.40;;;25.10;99.90;;;;;;5036296;28;20593;-57
2022/07/14 05:33:31;;;;;;;7.88;2.28;;;25.60;99.90;;;;;;5042699;28;20033;-57
2022/07/14 05:35:57;;;;;;;6.45;2.60;;;25.80;99.10;;;;;;5042874;28;20060;-57
2022/07/14 05:38:23;;;;;;;11.27;2.83;;;26.00;99.00;;;;;;5044529;28;20223;-57
2022/07/14 05:40:49;;;;;;;5.90;2.47;;;25.40;98.00;;;;;;5039674;28;20064;-57
2022/07/14 05:43:15;;;;;;;7.55;2.83;;;24.70;97.60;;;;;;5045714;28;20122;-57
2022/07/14 05:45:41;;;;;;;6.35;2.83;;;24.50;98.20;;;;;;5038344;28;20503;-57
2022/07/14 05:48:07;;;;;;;9.00;3.08;;;24.70;98.10;;;;;;5035351;28;20037;-57
2022/07/14 05:50:32;;;;;;;5.22;2.60;;;25.30;98.90;;;;;;5042314;28;20053;-57
2022/07/14 05:52:58;;;;;;;7.32;2.67;;;25.70;98.40;;;;;;5042876;28;20124;-57
2022/07/14 05:55:24;;;;;;;6.20;2.80;;;26.10;96.80;;;;;;5044188;28;20056;-57
2022/07/14 05:57:51;;;;;;;6.40;2.47;;;26.60;96.90;;;;;;5024140;28;20507;-56
2022/07/14 06:00:17;;;;;;;6.40;2.80;;;26.80;95.90;;;;;;5039650;28;20503;-57
2022/07/14 06:02:43;;;;;;;7.03;2.42;;;27.20;96.10;;;;;;5041407;28;20064;-57
2022/07/14 06:05:08;;;;;;;7.90;2.72;;;27.50;95.10;;;;;;5036999;28;20037;-57
2022/07/14 06:07:34;;;;;;;6.68;2.53;;;27.60;94.20;;;;;;5040021;28;20475;-57
2022/07/14 06:10:01;;;;;;;6.75;2.40;;;27.90;93.50;;;;;;5041070;28;20037;-58
2022/07/14 06:12:27;;;;;;;;;;;27.90;92.90;;;;;;5043879;28;20060;-57
2022/07/14 06:14:52;;;;;;;7.15;2.75;;;28.30;92.10;;;;;;5043515;28;20370;-57
2022/07/14 06:17:18;;;;;;;4.78;1.92;;;28.50;92.00;;;;;;5042498;28;20044;-57
2022/07/14 06:19:43;;;;;;;5.18;1.95;;;28.80;89.60;;;;;;5039942;28;20077;-57
2022/07/14 06:22:09;;;;;;;6.57;2.40;;;28.40;89.00;;;;;;5042184;28;20045;-56
2022/07/14 06:24:39;;;;;;;7.07;2.10;;;27.40;88.50;;;;;;5042631;28;20063;-56
2022/07/14 06:27:05;;;;;;;7.72;2.30;;;27.20;90.00;;;;;;5039094;28;20049;-55
2022/07/14 06:29:30;;;;;;;6.53;2.03;;;26.10;90.40;;;;;;5041272;28;20039;-56
2022/07/14 06:31:56;;;;;;;6.75;2.08;;;25.70;90.90;;;;;;5038182;28;20079;-56
2022/07/14 06:34:23;;;;;;;11.10;1.98;;;25.50;90.80;;;;;;5037265;28;20120;-56
2022/07/14 06:36:48;;;;;;;8.38;2.72;;;25.00;90.90;;;;;;5041292;28;20463;-56
2022/07/14 06:39:14;;;;;;;9.43;1.98;;;25.50;92.00;;;;;;5041122;28;20044;-57
2022/07/14 06:41:40;;;;;;;5.90;1.92;;;26.20;91.90;;;;;;5037806;28;20091;-57
2022/07/14 06:44:06;;;;;;;6.40;1.50;;;26.50;90.50;;;;;;5040007;28;20475;-56
2022/07/14 06:46:32;;;;;;;5.47;1.73;;;26.10;90.40;;;;;;5041580;28;20136;-56
2022/07/14 06:48:58;;;;;;;5.13;1.58;;;25.80;90.60;;;;;;5044425;28;20029;-54
2022/07/14 06:51:26;;;;;;;6.15;1.55;;;25.40;90.10;;;;;;5047385;28;20052;-55
2022/07/14 06:53:52;;;;;;;6.28;1.50;;;25.00;90.20;;;;;;5049373;28;20079;-56
2022/07/14 06:56:18;;;;;;;3.85;1.30;;;24.90;91.10;;;;;;5046350;28;20065;-56
2022/07/14 06:58:43;;;;;;;5.07;1.42;;;24.80;90.40;;;;;;5045723;28;20051;-55
2022/07/14 07:01:09;;;;;;;7.70;1.50;;;24.30;90.60;;;;;;5043359;28;20033;-55
2022/07/14 07:03:36;;;;;;;9.45;1.60;;;23.60;90.70;;;;;;5040287;28;20084;-55
2022/07/14 07:08:46;;;;;;;5.95;1.60;;;23.00;92.80;;;;;;5045324;28;20206;-54
2022/07/14 07:11:11;;;;;;;5.78;1.60;;;22.50;93.30;;;;;;5036731;28;20099;-55
2022/07/14 07:13:37;;;;;;;5.07;1.42;;;22.20;93.90;;;;;;5039574;28;20048;-54
2022/07/14 07:16:04;;;;;;;5.28;1.20;;;21.90;94.20;;;;;;5048875;28;20059;-55
2022/07/14 07:18:30;;;;;;;5.80;1.60;;;21.50;94.00;;;;;;5047490;28;20041;-54
2022/07/14 07:20:57;;;;;;;4.80;1.30;;;21.60;94.80;;;;;;5051226;28;20428;-54
2022/07/14 07:23:22;;;;;;;5.63;1.45;;;22.30;94.60;;;;;;5053471;28;20040;-54
2022/07/14 07:25:48;;;;;;;5.30;1.50;;;23.00;92.90;;;;;;5047435;28;20037;-55
2022/07/14 07:28:14;;;;;;;7.68;1.35;;;23.70;92.50;;;;;;5050645;28;20442;-55
2022/07/14 07:30:39;;;;;;;6.28;1.45;;;24.10;92.10;;;;;;5044109;28;20048;-54
2022/07/14 07:33:05;;;;;;;4.88;1.30;;;23.80;91.40;;;;;;5047359;28;20033;-54
2022/07/14 07:35:31;;;;;;;5.78;1.45;;;23.60;92.10;;;;;;5044391;28;20045;-55
2022/07/14 07:37:56;;;;;;;6.05;1.45;;;23.70;91.90;;;;;;5053401;28;20049;-55
2022/07/14 07:40:22;;;;;;;5.50;1.58;;;24.20;91.50;;;;;;5052862;28;20044;-55
2022/07/14 07:42:47;;;;;;;5.60;1.25;;;23.80;91.20;;;;;;5051104;28;20041;-55
2022/07/14 07:45:13;;;;;;;6.20;1.73;;;24.00;92.20;;;;;;5037041;28;20194;-55
2022/07/14 07:47:38;;;;;;;5.82;1.75;;;23.80;91.80;;;;;;5044519;28;20045;-56
2022/07/14 07:50:05;;;;;;;6.43;1.42;;;23.30;91.50;;;;;;5039296;28;20083;-55
2022/07/14 07:52:31;;;;;;;9.88;1.55;;;22.80;91.60;;;;;;5048967;28;20102;-53
2022/07/14 07:54:57;;;;;;;5.18;0.90;;;22.50;91.90;;;;;;5049446;28;20049;-55
2022/07/14 07:57:22;;;;;;;3.95;1.00;;;22.10;92.90;;;;;;5050507;28;20037;-56
2022/07/14 07:59:51;;;;;;;4.32;1.48;;;22.10;93.30;;;;;;5045323;28;20045;-55
2022/07/14 08:02:24;;;;;;;3.90;1.17;;;22.50;93.90;;;;;;5035632;28;20379;-55
2022/07/14 08:04:50;;;;;;;4.45;1.10;;;21.90;93.90;;;;;;5047357;28;20037;-54
2022/07/14 08:07:16;;;;;;;5.90;1.10;;;21.60;94.00;;;;;;5051104;28;20082;-55
2022/07/14 08:09:41;;;;;;;4.07;1.23;;;21.20;94.50;;;;;;5047212;28;20133;-55
2022/07/14 08:12:07;;;;;;;4.22;1.20;;;21.40;95.10;;;;;;5045014;28;20044;-55
2022/07/14 08:14:47;;;;;;;5.88;1.30;;;20.90;95.10;;;;;;5050114;28;20041;-55
2022/07/14 08:17:13;;;;;;;4.85;1.23;;;21.20;95.30;;;;;;5051612;28;20048;-56
2022/07/14 08:19:39;;;;;;;2.85;1.00;;;21.30;94.90;;;;;;5036729;28;20041;-56
2022/07/14 08:22:05;;;;;;;5.30;1.00;;;21.50;95.20;;;;;;5046597;28;20055;-54
2022/07/14 08:24:31;;;;;;;5.00;1.02;;;21.60;93.80;;;;;;5049825;28;20056;-56
2022/07/14 08:26:57;;;;;;;6.43;1.35;;;21.80;93.80;;;;;;5050203;28;20402;-46
2022/07/14 08:29:22;;;;;;;4.55;1.30;;;21.80;94.90;;;;;;5051106;28;20135;-46
2022/07/14 08:31:49;;;;;;;7.18;1.30;;;21.70;94.10;;;;;;5051834;28;20509;-47
2022/07/14 08:34:14;;;;;;;4.50;1.23;;;22.10;94.70;;;;;;5033459;28;20045;-46
2022/07/14 08:36:40;;;;;;;3.95;1.20;;;21.90;94.80;;;;;;5032804;28;20475;-47
2022/07/14 08:39:07;;;;;;;7.38;1.40;;;21.50;94.60;;;;;;5032000;28;20495;-49
2022/07/14 08:41:34;;;;;;;3.97;1.20;;;21.90;95.70;;;;;;5034065;28;20048;-46
2022/07/14 08:44:00;;;;;;;6.38;1.98;;;22.20;94.90;;;;;;5050456;28;20080;-46
2022/07/14 08:46:26;;;;;;;3.40;0.95;;;22.00;93.30;;;;;;5051112;28;20053;-47
2022/07/14 08:48:53;;;;;;;2.67;0.82;;;22.30;92.80;;;;;;5052135;28;20367;-46
2022/07/14 08:51:19;;;;;;;2.92;0.90;;;22.60;92.90;;;;;;5051329;28;20450;-47
2022/07/14 08:53:46;;;;;;;2.60;0.70;;;22.10;93.10;;;;;;5050029;28;20080;-47
2022/07/14 08:56:11;;;;;;;3.75;0.82;;;21.90;92.40;;;;;;5050825;28;20040;-46
2022/07/14 08:58:41;;;;;;;3.00;0.90;;;21.70;92.90;;;;;;5031616;28;20045;-47
2022/07/14 09:01:07;;;;;;;6.13;1.35;;;22.10;94.10;;;;;;5044376;28;20049;-49
2022/07/14 09:03:33;;;;;;;4.85;1.25;;;21.90;93.30;;;;;;5044672;28;20055;-46
2022/07/14 09:05:59;;;;;;;3.13;1.00;;;21.80;93.80;;;;;;5051388;28;20045;-46
2022/07/14 09:08:25;;;;;;;3.92;0.88;;;21.70;93.80;;;;;;5051452;28;20820;-46
2022/07/14 09:10:50;;;;;;;4.03;0.98;;;21.50;92.40;;;;;;5033018;28;20037;-48
2022/07/14 09:13:19;;;;;;;3.50;1.25;;;21.40;93.10;;;;;;5050387;28;20102;-50
2022/07/14 09:15:47;;;;;;;2.67;0.70;;;22.00;93.30;;;;;;5051583;28;20036;-46
2022/07/14 09:18:32;;;;;;;3.60;0.80;;;22.00;92.50;;;;;;5051634;28;20044;-47
2022/07/14 09:20:58;;;;;;;1.60;0.90;;;22.10;93.60;;;;;;5051150;28;20064;-48
2022/07/14 09:23:32;;;;;;;2.10;0.68;;;22.50;93.00;;;;;;5048887;28;20415;-49
2022/07/14 09:26:18;;;;;;;3.22;0.68;;;22.50;91.80;;;;;;5032622;28;20049;-48
2022/07/14 09:28:47;;;;;;;1.98;0.60;;;22.20;92.10;;;;;;5050627;28;20120;-48
2022/07/14 09:31:21;;;;;;;3.53;0.80;;;22.00;90.40;;;;;;5051716;28;20037;-47
2022/07/14 09:34:01;;;;;;;1.83;0.50;;;21.90;90.60;;;;;;5051223;28;20509;-47
2022/07/14 09:36:32;;;;;;;1.25;0.80;;;22.60;91.20;;;;;;5051305;28;20041;-48
2022/07/14 09:39:01;;;;;;;4.07;1.08;;;23.00;90.40;;;;;;5051384;28;20376;-47
2022/07/14 09:41:28;;;;;;;2.63;0.95;;;22.60;90.00;;;;;;5049439;28;20040;-48
2022/07/14 09:44:14;;;;;;;3.80;0.80;;;23.00;90.30;;;;;;5051097;28;20523;-46
2022/07/14 09:46:54;;;;;;;1.98;0.60;;;22.70;90.60;;;;;;5050315;28;20041;-49
2022/07/14 09:49:23;;;;;;;3.63;0.70;;;22.40;90.50;;;;;;5051331;28;20059;-50
2022/07/14 09:52:05;;;;;;;1.63;0.70;;;22.40;91.90;;;;;;5051008;28;20053;-46
2022/07/14 09:54:36;;;;;;;3.30;0.90;;;23.10;92.80;;;;;;5033892;28;20542;-46
2022/07/14 09:57:18;;;;;;;3.88;1.10;;;23.20;92.30;;;;;;5045564;28;20043;-47
2022/07/14 09:59:52;;;;;;;5.18;1.17;;;23.10;91.50;;;;;;5047484;28;20048;-51
2022/07/14 10:02:27;;;;;;;6.05;1.20;;;22.80;91.00;;;;;;5043533;28;20052;-49
2022/07/14 10:04:55;;;;;;;3.10;0.93;;;23.10;91.90;;;;;;5045160;28;21482;-47
2022/07/14 10:07:23;;;;;;;1.63;0.50;;;23.00;91.50;;;;;;5015655;28;20038;-48
2022/07/14 10:10:01;;;;;;;2.15;0.77;;;23.20;91.10;;;;;;5049251;28;20116;-51
2022/07/14 10:12:27;;;;;;;3.63;0.70;;;23.30;90.40;;;;;;5041744;28;20053;-49
2022/07/14 10:14:53;;;;;;;3.05;1.10;;;23.40;90.00;;;;;;5037272;28;20086;-46
2022/07/14 10:17:20;;;;;;;2.60;0.65;;;23.00;89.80;;;;;;5051472;28;20371;-50
2022/07/14 10:19:46;;;;;;;;;;;23.30;90.80;;;;;;5041358;28;20045;-46
2022/07/14 10:22:14;;;;;;;3.28;0.85;;;23.60;92.10;;;;;;5050568;28;19920;-46
2022/07/14 10:24:41;;;;;;;;;;;23.50;90.80;;;;;;5039679;28;20046;-47
2022/07/14 10:27:06;;;;;;;;;;;23.10;90.10;;;;;;5036001;28;20480;-49
2022/07/14 10:29:33;;;;;;;3.03;0.80;;;23.00;88.80;;;;;;5052093;28;19928;-51
2022/07/14 10:32:18;;;;;;;2.40;0.77;;;22.70;89.10;;;;;;5051696;28;20045;-46
2022/07/14 10:34:59;;;;;;;3.80;0.80;;;23.00;90.50;;;;;;5053575;28;20051;-47
2022/07/14 10:37:54;;;;;;;1.10;0.63;;;23.10;90.30;;;;;;5048804;28;20441;-48
2022/07/14 10:40:36;;;;;;;3.45;0.68;;;23.20;90.70;;;;;;5054394;28;20045;-49
2022/07/14 10:43:09;;;;;;;1.73;0.70;;;23.30;90.40;;;;;;5049908;28;20086;-49
2022/07/14 10:45:34;;;;;;;2.17;0.70;;;22.90;89.40;;;;;;5053474;28;20056;-47
2022/07/14 10:48:00;;;;;;;2.35;0.50;;;23.00;91.20;;;;;;5054234;28;20033;-48
2022/07/14 10:50:30;;;;;;;1.77;0.57;;;23.10;90.20;;;;;;5054013;28;20044;-50
2022/07/14 10:52:55;;;;;;;2.30;0.57;;;23.10;91.00;;;;;;5051717;28;20048;-47
2022/07/14 10:55:27;;;;;;;2.50;0.70;;;22.70;90.50;;;;;;5053627;28;20040;-51
2022/07/14 10:58:03;;;;;;;2.15;0.98;;;22.90;91.50;;;;;;5043952;28;20048;-48
2022/07/14 11:00:40;;;;;;;3.85;0.75;;;22.70;90.00;;;;;;5045624;28;20052;-54
2022/07/14 11:03:35;;;;;;;21.17;1.60;;;22.40;90.70;;;;;;5044128;28;20082;-47
2022/07/14 11:06:03;;;;;;;5.25;1.10;;;22.80;92.60;;;;;;5029754;28;20118;-50
2022/07/14 11:08:29;;;;;;;4.07;0.80;;;22.90;91.80;;;;;;5052349;28;20049;-46
2022/07/14 11:10:57;;;;;;;3.80;0.60;;;23.00;92.00;;;;;;5050905;28;20048;-48
2022/07/14 11:13:23;;;;;;;2.90;0.80;;;22.70;90.80;;;;;;5047239;28;20120;-51
2022/07/14 11:16:02;;;;;;;5.35;1.00;;;22.10;90.80;;;;;;5044999;28;20440;-47
2022/07/14 11:18:31;;;;;;;2.78;0.80;;;22.50;91.80;;;;;;5039494;28;20120;-49
2022/07/14 11:21:13;;;;;;;3.58;0.90;;;22.60;91.50;;;;;;5052237;28;20155;-49
2022/07/14 11:23:51;;;;;;;3.03;1.00;;;22.80;92.10;;;;;;5047682;28;20045;-51
2022/07/14 11:26:37;;;;;;;2.97;0.77;;;22.70;91.50;;;;;;5047003;28;20135;-47
2022/07/14 11:29:05;;;;;;;2.28;0.80;;;22.80;91.70;;;;;;5050477;28;20065;-51
2022/07/14 11:31:48;;;;;;;2.65;0.77;;;22.90;91.60;;;;;;5051902;28;20116;-49
2022/07/14 11:37:15;;;;;;;3.55;0.88;;;22.70;90.80;;;;;;5052571;28;20060;-47
2022/07/14 11:39:44;;;;;;;6.53;0.88;;;22.70;91.10;;;;;;5051269;28;20123;-46
2022/07/14 11:42:13;;;;;;;2.95;0.65;;;22.60;90.90;;;;;;5050946;28;20041;-47
2022/07/14 11:44:38;;;;;;;4.03;0.90;;;22.90;91.50;;;;;;5043417;28;20048;-46
2022/07/14 11:47:07;;;;;;;3.30;0.98;;;23.00;90.90;;;;;;5047933;28;20060;-46
2022/07/14 11:49:33;;;;;;;2.33;0.80;;;22.80;90.90;;;;;;5051712;28;20049;-49
2022/07/14 11:52:00;;;;;;;1.50;0.70;;;22.60;90.70;;;;;;5049916;28;20056;-47
2022/07/14 11:54:27;;;;;;;6.55;1.33;;;22.40;90.80;;;;;;5050270;28;20044;-48
2022/07/14 11:57:05;;;;;;;2.22;0.85;;;22.50;90.90;;;;;;5046555;28;20044;-48
2022/07/14 11:59:36;;;;;;;4.13;0.80;;;22.30;90.90;;;;;;5046952;28;20497;-47
2022/07/14 12:02:10;;;;;;;3.08;0.95;;;22.40;91.50;;;;;;5050318;28;20033;-49
2022/07/14 12:04:52;;;;;;;4.60;0.80;;;22.50;91.30;;;;;;5050805;28;20076;-49
2022/07/14 12:07:19;;;;;;;2.70;0.90;;;22.10;91.10;;;;;;5044694;28;20112;-49
2022/07/14 12:09:46;;;;;;;1.42;0.60;;;22.30;91.90;;;;;;5050612;28;20045;-48
2022/07/14 12:12:12;;;;;;;5.70;0.70;;;21.90;91.20;;;;;;5048248;28;20037;-48
2022/07/14 12:14:49;;;;;;;2.10;0.63;;;22.10;91.20;;;;;;5051175;28;20080;-46
2022/07/14 12:17:15;;;;;;;;;;;22.10;91.10;;;;;;5017797;28;20045;-49
2022/07/14 12:19:41;;;;;;;1.88;0.73;;;22.50;91.60;;;;;;5050132;28;19927;-49
2022/07/14 12:22:06;;;;;;;2.70;0.68;;;22.60;91.40;;;;;;5051218;28;20049;-47
2022/07/14 12:24:33;;;;;;;6.20;0.95;;;22.90;90.50;;;;;;5040440;28;20099;-49
2022/07/14 12:27:00;;;;;;;2.08;0.85;;;23.10;90.20;;;;;;5045363;28;20175;-47
2022/07/14 12:29:29;;;;;;;4.95;1.00;;;23.20;90.60;;;;;;5051560;28;20049;-47
2022/07/14 12:31:57;;;;;;;1.60;0.55;;;23.60;90.70;;;;;;5047908;28;20041;-46
2022/07/14 12:34:23;;;;;;;1.33;0.50;;;23.60;90.10;;;;;;5034876;28;20115;-47
2022/07/14 12:36:50;;;;;;;2.70;0.88;;;23.60;90.30;;;;;;5045265;28;20475;-47
2022/07/14 12:39:17;;;;;;;3.10;0.87;;;23.80;89.80;;;;;;5051798;28;20040;-49
2022/07/14 12:41:45;;;;;;;4.43;0.85;;;24.00;89.80;;;;;;5049974;28;20283;-47
2022/07/14 12:44:10;;;;;;;2.30;0.70;;;23.90;89.30;;;;;;5051743;28;20119;-47
2022/07/14 12:46:36;;;;;;;2.78;1.00;;;23.80;87.20;;;;;;5051967;28;20116;-47
2022/07/14 12:49:07;;;;;;;3.08;0.80;;;23.90;89.20;;;;;;5051903;28;20045;-45
2022/07/14 12:51:33;;;;;;;2.72;0.80;;;23.60;88.00;;;;;;5045820;28;20041;-49
2022/07/14 12:54:04;;;;;;;3.75;0.75;;;23.90;87.10;;;;;;5044912;28;20106;-47
2022/07/14 12:56:51;;;;;;;2.33;0.70;;;24.50;89.70;;;;;;5044553;28;20040;-46
2022/07/14 12:59:34;;;;;;;3.47;0.80;;;24.90;88.10;;;;;;5039966;28;20041;-48
2022/07/14 13:02:03;;;;;;;2.63;0.80;;;24.70;89.20;;;;;;5046989;28;20157;-48